sensor_id;sensor_type;location;lat;lon;timestamp;pressure;altitude;pressure_sealevel;temperature;humidity
50592;BME280;36548;50.506;30.834;2023-04-25T00:00:26;99534.52;;;13.15;50.08
50592;BME280;36548;50.506;30.834;2023-04-25T00:01:41;99524.62;;;13.25;50.36
50592;BME280;36548;50.506;30.834;2023-04-25T00:02:51;99530.70;;;13.18;50.28
50592;BME280;36548;50.506;30.834;2023-04-25T00:04:06;99526.94;;;13.30;50.24
50592;BME280;36548;50.506;30.834;2023-04-25T00:05:17;99526.02;;;13.20;50.30
50592;BME280;36548;50.506;30.834;2023-04-25T00:06:35;99524.81;;;13.34;50.40
50592;BME280;36548;50.506;30.834;2023-04-25T00:07:44;99523.92;;;13.23;50.45
50592;BME280;36548;50.506;30.834;2023-04-25T00:09:02;99524.56;;;13.37;50.37
50592;BME280;36548;50.506;30.834;2023-04-25T00:10:13;99520.95;;;13.26;50.34
50592;BME280;36548;50.506;30.834;2023-04-25T00:11:36;99518.78;;;13.41;50.15
50592;BME280;36548;50.506;30.834;2023-04-25T00:12:46;99517.84;;;13.31;50.14
50592;BME280;36548;50.506;30.834;2023-04-25T00:13:55;99522.98;;;13.34;50.12
50592;BME280;36548;50.506;30.834;2023-04-25T00:15:30;99521.06;;;13.46;49.97
50592;BME280;36548;50.506;30.834;2023-04-25T00:16:39;99527.15;;;13.38;49.92
50592;BME280;36548;50.506;30.834;2023-04-25T00:17:50;99516.37;;;13.38;49.87
50592;BME280;36548;50.506;30.834;2023-04-25T00:19:02;99527.15;;;13.38;49.94
50592;BME280;36548;50.506;30.834;2023-04-25T00:20:12;99523.44;;;13.39;49.97
50592;BME280;36548;50.506;30.834;2023-04-25T00:21:21;99514.66;;;13.37;49.96
50592;BME280;36548;50.506;30.834;2023-04-25T00:22:32;99530.09;;;13.35;49.98
50592;BME280;36548;50.506;30.834;2023-04-25T00:23:46;99523.97;;;13.33;50.13
50592;BME280;36548;50.506;30.834;2023-04-25T00:24:55;99525.92;;;13.31;50.09
50592;BME280;36548;50.506;30.834;2023-04-25T00:26:06;99526.06;;;13.29;50.11
50592;BME280;36548;50.506;30.834;2023-04-25T00:27:22;99514.80;;;13.36;50.38
50592;BME280;36548;50.506;30.834;2023-04-25T00:28:31;99510.58;;;13.22;50.41
50592;BME280;36548;50.506;30.834;2023-04-25T00:29:41;99517.09;;;13.19;50.59
50592;BME280;36548;50.506;30.834;2023-04-25T00:30:52;99515.52;;;13.17;50.60
50592;BME280;36548;50.506;30.834;2023-04-25T00:32:08;99511.88;;;13.27;50.71
50592;BME280;36548;50.506;30.834;2023-04-25T00:33:16;99507.42;;;13.17;50.75
50592;BME280;36548;50.506;30.834;2023-04-25T00:34:32;99499.25;;;13.28;50.69
50592;BME280;36548;50.506;30.834;2023-04-25T00:35:42;99509.14;;;13.18;50.77
50592;BME280;36548;50.506;30.834;2023-04-25T00:36:52;99509.28;;;13.16;50.78
50592;BME280;36548;50.506;30.834;2023-04-25T00:38:05;99501.20;;;13.16;50.78
50592;BME280;36548;50.506;30.834;2023-04-25T00:39:15;99501.20;;;13.16;50.93
50592;BME280;36548;50.506;30.834;2023-04-25T00:40:31;99500.97;;;13.29;50.92
50592;BME280;36548;50.506;30.834;2023-04-25T00:41:40;99501.76;;;13.20;50.78
50592;BME280;36548;50.506;30.834;2023-04-25T00:42:56;99493.58;;;13.31;50.82
50592;BME280;36548;50.506;30.834;2023-04-25T00:44:06;99500.08;;;13.19;50.81
50592;BME280;36548;50.506;30.834;2023-04-25T00:45:27;99496.55;;;13.28;51.03
50592;BME280;36548;50.506;30.834;2023-04-25T00:46:36;99497.38;;;13.19;51.01
50592;BME280;36548;50.506;30.834;2023-04-25T00:47:46;99502.77;;;13.19;51.07
50592;BME280;36548;50.506;30.834;2023-04-25T00:49:03;99497.15;;;13.32;51.05
50592;BME280;36548;50.506;30.834;2023-04-25T00:50:14;99501.62;;;13.21;50.93
50592;BME280;36548;50.506;30.834;2023-04-25T00:51:23;99500.78;;;13.21;50.84
50592;BME280;36548;50.506;30.834;2023-04-25T00:52:34;99498.36;;;13.18;51.09
50592;BME280;36548;50.506;30.834;2023-04-25T00:53:51;99508.20;;;13.28;51.02
50592;BME280;36548;50.506;30.834;2023-04-25T00:55:01;99505.71;;;13.16;50.97
50592;BME280;36548;50.506;30.834;2023-04-25T00:56:11;99506.72;;;13.15;50.94
50592;BME280;36548;50.506;30.834;2023-04-25T00:57:20;99505.14;;;13.12;51.01
50592;BME280;36548;50.506;30.834;2023-04-25T00:58:29;99503.70;;;13.08;51.25
50592;BME280;36548;50.506;30.834;2023-04-25T00:59:45;99498.64;;;13.15;51.35
50592;BME280;36548;50.506;30.834;2023-04-25T01:00:55;99499.84;;;13.01;51.36
50592;BME280;36548;50.506;30.834;2023-04-25T01:02:06;99503.78;;;12.96;51.57
50592;BME280;36548;50.506;30.834;2023-04-25T01:03:22;99502.77;;;12.98;51.98
50592;BME280;36548;50.506;30.834;2023-04-25T01:04:33;99517.30;;;12.85;51.97
50592;BME280;36548;50.506;30.834;2023-04-25T01:05:50;99513.36;;;12.89;52.16
50592;BME280;36548;50.506;30.834;2023-04-25T01:07:02;99508.31;;;12.75;52.20
50592;BME280;36548;50.506;30.834;2023-04-25T01:08:18;99505.22;;;12.79;52.54
50592;BME280;36548;50.506;30.834;2023-04-25T01:09:30;99508.25;;;12.65;52.63
50592;BME280;36548;50.506;30.834;2023-04-25T01:10:46;99507.00;;;12.69;53.04
50592;BME280;36548;50.506;30.834;2023-04-25T01:11:56;99508.31;;;12.54;53.22
50592;BME280;36548;50.506;30.834;2023-04-25T01:13:07;99497.07;;;12.49;53.40
50592;BME280;36548;50.506;30.834;2023-04-25T01:14:23;99494.59;;;12.57;53.45
50592;BME280;36548;50.506;30.834;2023-04-25T01:15:33;99494.65;;;12.45;53.25
50592;BME280;36548;50.506;30.834;2023-04-25T01:16:45;99496.02;;;12.40;53.61
50592;BME280;36548;50.506;30.834;2023-04-25T01:17:55;99498.23;;;12.35;53.77
50592;BME280;36548;50.506;30.834;2023-04-25T01:19:10;99500.32;;;12.31;54.09
50592;BME280;36548;50.506;30.834;2023-04-25T01:20:24;99500.45;;;12.30;54.02
50592;BME280;36548;50.506;30.834;2023-04-25T01:21:40;99494.70;;;12.34;54.20
50592;BME280;36548;50.506;30.834;2023-04-25T01:22:51;99492.30;;;12.20;54.34
50592;BME280;36548;50.506;30.834;2023-04-25T01:24:03;99492.43;;;12.18;54.49
50592;BME280;36548;50.506;30.834;2023-04-25T01:25:19;99495.20;;;12.28;54.48
50592;BME280;36548;50.506;30.834;2023-04-25T01:26:29;99502.48;;;12.16;54.70
50592;BME280;36548;50.506;30.834;2023-04-25T01:27:40;99505.17;;;12.16;54.56
50592;BME280;36548;50.506;30.834;2023-04-25T01:28:49;99503.45;;;12.15;54.59
50592;BME280;36548;50.506;30.834;2023-04-25T01:29:59;99495.64;;;12.12;54.70
50592;BME280;36548;50.506;30.834;2023-04-25T01:31:11;99502.26;;;12.08;54.90
50592;BME280;36548;50.506;30.834;2023-04-25T01:32:23;99492.73;;;12.04;55.25
50592;BME280;36548;50.506;30.834;2023-04-25T01:33:33;99496.40;;;12.03;55.15
50592;BME280;36548;50.506;30.834;2023-04-25T01:34:42;99494.55;;;12.03;55.30
50592;BME280;36548;50.506;30.834;2023-04-25T01:35:58;99487.44;;;12.14;55.50
50592;BME280;36548;50.506;30.834;2023-04-25T01:37:07;99499.93;;;12.03;55.30
50592;BME280;36548;50.506;30.834;2023-04-25T01:38:22;99485.86;;;12.11;55.57
50592;BME280;36548;50.506;30.834;2023-04-25T01:39:33;99492.38;;;11.97;55.61
50592;BME280;36548;50.506;30.834;2023-04-25T01:40:49;99484.53;;;12.05;55.74
50592;BME280;36548;50.506;30.834;2023-04-25T01:42:01;99487.36;;;11.92;55.79
50592;BME280;36548;50.506;30.834;2023-04-25T01:43:10;99482.21;;;11.89;55.83
50592;BME280;36548;50.506;30.834;2023-04-25T01:44:26;99481.49;;;11.99;56.03
50592;BME280;36548;50.506;30.834;2023-04-25T01:45:35;99488.82;;;11.85;56.07
50592;BME280;36548;50.506;30.834;2023-04-25T01:46:47;99486.39;;;11.82;56.31
50592;BME280;36548;50.506;30.834;2023-04-25T01:47:57;99485.55;;;11.82;56.58
50592;BME280;36548;50.506;30.834;2023-04-25T01:49:07;99478.45;;;11.81;56.51
50592;BME280;36548;50.506;30.834;2023-04-25T01:50:22;99487.45;;;11.91;56.49
50592;BME280;36548;50.506;30.834;2023-04-25T01:51:32;99482.25;;;11.78;56.62
50592;BME280;36548;50.506;30.834;2023-04-25T01:52:41;99494.84;;;11.77;56.48
50592;BME280;36548;50.506;30.834;2023-04-25T01:53:50;99486.91;;;11.76;56.53
50592;BME280;36548;50.506;30.834;2023-04-25T01:55:07;99485.55;;;11.82;56.72
50592;BME280;36548;50.506;30.834;2023-04-25T01:56:19;99490.20;;;11.68;56.78
50592;BME280;36548;50.506;30.834;2023-04-25T01:57:35;99479.81;;;11.75;57.01
50592;BME280;36548;50.506;30.834;2023-04-25T01:58:45;99482.66;;;11.62;56.93
50592;BME280;36548;50.506;30.834;2023-04-25T01:59:59;99482.78;;;11.60;56.94
50592;BME280;36548;50.506;30.834;2023-04-25T02:01:15;99474.08;;;11.68;57.38
50592;BME280;36548;50.506;30.834;2023-04-25T02:02:27;99483.02;;;11.57;57.20
50592;BME280;36548;50.506;30.834;2023-04-25T02:03:38;99473.27;;;11.56;57.51
50592;BME280;36548;50.506;30.834;2023-04-25T02:04:50;99475.95;;;11.56;57.38
50592;BME280;36548;50.506;30.834;2023-04-25T02:06:05;99470.55;;;11.68;57.48
50592;BME280;36548;50.506;30.834;2023-04-25T02:07:17;99474.11;;;11.57;57.36
50592;BME280;36548;50.506;30.834;2023-04-25T02:08:32;99474.11;;;11.57;57.46
50592;BME280;36548;50.506;30.834;2023-04-25T02:09:42;99466.05;;;11.57;57.33
50592;BME280;36548;50.506;30.834;2023-04-25T02:10:53;99478.64;;;11.56;57.37
50592;BME280;36548;50.506;30.834;2023-04-25T02:12:10;99466.02;;;11.68;57.36
50592;BME280;36548;50.506;30.834;2023-04-25T02:13:39;99466.88;;;11.57;57.42
50592;BME280;36548;50.506;30.834;2023-04-25T02:14:56;99463.33;;;11.68;57.34
50592;BME280;36548;50.506;30.834;2023-04-25T02:16:09;99467.76;;;11.58;57.49
50592;BME280;36548;50.506;30.834;2023-04-25T02:17:20;99462.38;;;11.58;57.37
50592;BME280;36548;50.506;30.834;2023-04-25T02:18:30;99473.13;;;11.58;57.25
50592;BME280;36548;50.506;30.834;2023-04-25T02:19:41;99465.20;;;11.56;57.34
50592;BME280;36548;50.506;30.834;2023-04-25T02:20:59;99459.92;;;11.66;57.52
50592;BME280;36548;50.506;30.834;2023-04-25T02:22:09;99460.80;;;11.55;57.35
50592;BME280;36548;50.506;30.834;2023-04-25T02:23:21;99455.55;;;11.54;57.33
50592;BME280;36548;50.506;30.834;2023-04-25T02:24:36;99456.49;;;11.64;57.35
50592;BME280;36548;50.506;30.834;2023-04-25T02:25:46;99459.34;;;11.51;57.45
50592;BME280;36548;50.506;30.834;2023-04-25T02:26:57;99459.46;;;11.50;57.66
50592;BME280;36548;50.506;30.834;2023-04-25T02:28:06;99458.49;;;11.51;57.72
50592;BME280;36548;50.506;30.834;2023-04-25T02:29:23;99456.64;;;11.51;57.60
50592;BME280;36548;50.506;30.834;2023-04-25T02:30:32;99455.67;;;11.52;57.42
50592;BME280;36548;50.506;30.834;2023-04-25T02:31:47;99456.75;;;11.61;57.70
50592;BME280;36548;50.506;30.834;2023-04-25T02:32:58;99461.18;;;11.51;57.58
50592;BME280;36548;50.506;30.834;2023-04-25T02:34:08;99463.87;;;11.51;57.85
50592;BME280;36548;50.506;30.834;2023-04-25T02:35:19;99461.89;;;11.53;57.53
50592;BME280;36548;50.506;30.834;2023-04-25T02:36:30;99465.55;;;11.52;57.36
50592;BME280;36548;50.506;30.834;2023-04-25T02:37:47;99458.82;;;11.57;57.44
50592;BME280;36548;50.506;30.834;2023-04-25T02:38:56;99458.97;;;11.45;57.47
50592;BME280;36548;50.506;30.834;2023-04-25T02:40:06;99458.26;;;11.42;57.55
50592;BME280;36548;50.506;30.834;2023-04-25T02:41:24;99456.77;;;11.50;57.78
50592;BME280;36548;50.506;30.834;2023-04-25T02:42:34;99459.70;;;11.35;57.98
50592;BME280;36548;50.506;30.834;2023-04-25T02:43:49;99458.97;;;11.45;58.07
50592;BME280;36548;50.506;30.834;2023-04-25T02:44:59;99457.14;;;11.34;58.26
50592;BME280;36548;50.506;30.834;2023-04-25T02:46:09;99456.30;;;11.33;58.44
50592;BME280;36548;50.506;30.834;2023-04-25T02:47:25;99458.84;;;11.46;58.47
50592;BME280;36548;50.506;30.834;2023-04-25T02:48:34;99462.17;;;11.38;58.30
50592;BME280;36548;50.506;30.834;2023-04-25T02:49:50;99458.59;;;11.49;58.16
50592;BME280;36548;50.506;30.834;2023-04-25T02:51:00;99458.61;;;11.38;58.30
50592;BME280;36548;50.506;30.834;2023-04-25T02:52:11;99464.86;;;11.38;58.08
50592;BME280;36548;50.506;30.834;2023-04-25T02:53:21;99459.61;;;11.37;58.21
50592;BME280;36548;50.506;30.834;2023-04-25T02:54:57;99458.59;;;11.49;57.96
50592;BME280;36548;50.506;30.834;2023-04-25T02:56:08;99456.92;;;11.37;57.96
50592;BME280;36548;50.506;30.834;2023-04-25T02:57:23;99452.63;;;11.46;58.12
50592;BME280;36548;50.506;30.834;2023-04-25T02:58:32;99454.45;;;11.34;57.97
50592;BME280;36548;50.506;30.834;2023-04-25T02:59:44;99456.56;;;11.30;58.07
50592;BME280;36548;50.506;30.834;2023-04-25T03:00:59;99453.11;;;11.39;58.59
50592;BME280;36548;50.506;30.834;2023-04-25T03:02:09;99453.13;;;11.28;58.33
50592;BME280;36548;50.506;30.834;2023-04-25T03:03:25;99459.48;;;11.38;58.46
50592;BME280;36548;50.506;30.834;2023-04-25T03:04:34;99455.94;;;11.26;58.31
50592;BME280;36548;50.506;30.834;2023-04-25T03:05:50;99456.92;;;11.37;58.44
50592;BME280;36548;50.506;30.834;2023-04-25T03:07:01;99458.63;;;11.26;58.86
50592;BME280;36548;50.506;30.834;2023-04-25T03:08:11;99456.42;;;11.32;58.96
50592;BME280;36548;50.506;30.834;2023-04-25T03:09:21;99455.92;;;11.38;58.87
50592;BME280;36548;50.506;30.834;2023-04-25T03:10:38;99454.32;;;11.58;58.92
50592;BME280;36548;50.506;30.834;2023-04-25T03:11:50;99463.36;;;11.57;58.53
50592;BME280;36548;50.506;30.834;2023-04-25T03:13:05;99455.23;;;11.80;58.50
50592;BME280;36548;50.506;30.834;2023-04-25T03:14:13;99461.22;;;11.83;58.34
50592;BME280;36548;50.506;30.834;2023-04-25T03:15:28;99458.83;;;12.13;57.99
50592;BME280;36548;50.506;30.834;2023-04-25T03:16:39;99464.81;;;12.16;57.81
50592;BME280;36548;50.506;30.834;2023-04-25T03:17:54;99456.49;;;12.40;57.17
50592;BME280;36548;50.506;30.834;2023-04-25T03:19:05;99458.91;;;12.43;56.73
50592;BME280;36548;50.506;30.834;2023-04-25T03:20:21;99452.31;;;12.69;56.58
50592;BME280;36548;50.506;30.834;2023-04-25T03:21:32;99456.69;;;12.70;56.11
50592;BME280;36548;50.506;30.834;2023-04-25T03:22:48;99450.16;;;12.93;55.89
50592;BME280;36548;50.506;30.834;2023-04-25T03:23:57;99459.81;;;12.96;55.88
50592;BME280;36548;50.506;30.834;2023-04-25T03:25:12;99447.72;;;13.21;55.16
50592;BME280;36548;50.506;30.834;2023-04-25T03:26:22;99452.13;;;13.22;54.71
50592;BME280;36548;50.506;30.834;2023-04-25T03:27:38;99449.25;;;13.45;54.32
50592;BME280;36548;50.506;30.834;2023-04-25T03:28:47;99451.84;;;13.46;54.19
50592;BME280;36548;50.506;30.834;2023-04-25T03:29:57;99458.24;;;13.55;53.81
50592;BME280;36548;50.506;30.834;2023-04-25T03:31:12;99451.19;;;13.84;53.60
50592;BME280;36548;50.506;30.834;2023-04-25T03:32:21;99453.60;;;13.87;52.96
50592;BME280;36548;50.506;30.834;2023-04-25T03:33:36;99446.25;;;14.18;52.78
50592;BME280;36548;50.506;30.834;2023-04-25T03:34:47;99456.89;;;14.29;52.47
50592;BME280;36548;50.506;30.834;2023-04-25T03:36:03;99453.91;;;14.72;51.86
50592;BME280;36548;50.506;30.834;2023-04-25T03:37:12;99449.45;;;14.90;51.18
50592;BME280;36548;50.506;30.834;2023-04-25T03:38:21;99453.45;;;15.24;50.47
50592;BME280;36548;50.506;30.834;2023-04-25T03:39:32;99454.13;;;15.63;49.63
50592;BME280;36548;50.506;30.834;2023-04-25T03:40:42;99453.89;;;16.02;48.65
50592;BME280;36548;50.506;30.834;2023-04-25T03:41:57;99439.48;;;16.56;47.47
50592;BME280;36548;50.506;30.834;2023-04-25T03:43:08;99452.34;;;16.80;46.63
50592;BME280;36548;50.506;30.834;2023-04-25T03:44:22;99451.41;;;17.16;45.73
50592;BME280;36548;50.506;30.834;2023-04-25T03:45:38;99451.44;;;17.67;44.51
50592;BME280;36548;50.506;30.834;2023-04-25T03:46:49;99452.02;;;17.87;43.96
50592;BME280;36548;50.506;30.834;2023-04-25T03:47:57;99449.05;;;18.23;43.38
50592;BME280;36548;50.506;30.834;2023-04-25T03:49:08;99447.19;;;18.56;42.57
50592;BME280;36548;50.506;30.834;2023-04-25T03:51:08;99447.37;;;18.88;41.62
50592;BME280;36548;50.506;30.834;2023-04-25T03:52:24;99438.95;;;19.62;40.23
50592;BME280;36548;50.506;30.834;2023-04-25T03:53:33;99446.88;;;19.80;39.62
50592;BME280;36548;50.506;30.834;2023-04-25T03:54:48;99438.55;;;20.28;38.84
50592;BME280;36548;50.506;30.834;2023-04-25T03:56:00;99450.72;;;20.40;37.98
50592;BME280;36548;50.506;30.834;2023-04-25T03:57:16;99446.27;;;20.86;37.54
50592;BME280;36548;50.506;30.834;2023-04-25T03:58:26;99441.22;;;20.98;36.83
50592;BME280;36548;50.506;30.834;2023-04-25T03:59:36;99449.69;;;21.18;36.26
50592;BME280;36548;50.506;30.834;2023-04-25T04:00:46;99442.82;;;21.37;36.03
50592;BME280;36548;50.506;30.834;2023-04-25T04:01:56;99445.45;;;21.45;34.98
50592;BME280;36548;50.506;30.834;2023-04-25T04:03:07;99447.73;;;21.56;35.16
50592;BME280;36548;50.506;30.834;2023-04-25T04:04:18;99441.38;;;21.71;34.80
50592;BME280;36548;50.506;30.834;2023-04-25T04:05:27;99445.03;;;21.78;34.82
50592;BME280;36548;50.506;30.834;2023-04-25T04:06:43;99434.78;;;21.80;34.10
50592;BME280;36548;50.506;30.834;2023-04-25T04:07:54;99437.92;;;21.62;34.31
50592;BME280;36548;50.506;30.834;2023-04-25T04:09:04;99439.80;;;21.46;34.06
50592;BME280;36548;50.506;30.834;2023-04-25T04:10:15;99439.42;;;21.35;34.86
50592;BME280;36548;50.506;30.834;2023-04-25T04:11:30;99435.47;;;21.37;35.02
50592;BME280;36548;50.506;30.834;2023-04-25T04:12:40;99440.77;;;21.24;35.17
50592;BME280;36548;50.506;30.834;2023-04-25T04:13:55;99437.91;;;21.32;34.89
50592;BME280;36548;50.506;30.834;2023-04-25T04:15:05;99436.42;;;21.15;35.10
50592;BME280;36548;50.506;30.834;2023-04-25T04:16:44;99437.94;;;21.17;35.08
50592;BME280;36548;50.506;30.834;2023-04-25T04:17:54;99443.76;;;20.99;35.13
50592;BME280;36548;50.506;30.834;2023-04-25T04:19:04;99447.78;;;20.88;35.65
50592;BME280;36548;50.506;30.834;2023-04-25T04:20:20;99434.63;;;20.92;35.74
50592;BME280;36548;50.506;30.834;2023-04-25T04:21:30;99447.86;;;20.80;35.76
50592;BME280;36548;50.506;30.834;2023-04-25T04:22:45;99438.00;;;20.94;36.01
50592;BME280;36548;50.506;30.834;2023-04-25T04:23:55;99437.36;;;20.92;36.06
50592;BME280;36548;50.506;30.834;2023-04-25T04:25:08;99444.59;;;21.00;35.88
50592;BME280;36548;50.506;30.834;2023-04-25T04:26:26;99442.62;;;21.08;35.64
50592;BME280;36548;50.506;30.834;2023-04-25T04:27:40;99431.91;;;20.92;35.95
50592;BME280;36548;50.506;30.834;2023-04-25T04:28:55;99433.48;;;21.01;35.81
50592;BME280;36548;50.506;30.834;2023-04-25T04:30:07;99444.56;;;20.85;35.89
50592;BME280;36548;50.506;30.834;2023-04-25T04:31:23;99429.52;;;20.89;35.81
50592;BME280;36548;50.506;30.834;2023-04-25T04:32:34;99434.30;;;20.72;35.95
50592;BME280;36548;50.506;30.834;2023-04-25T04:33:45;99431.62;;;20.64;36.13
50592;BME280;36548;50.506;30.834;2023-04-25T04:34:56;99434.91;;;20.59;36.14
50592;BME280;36548;50.506;30.834;2023-04-25T04:36:06;99429.52;;;20.51;36.44
50592;BME280;36548;50.506;30.834;2023-04-25T04:37:25;99422.19;;;20.51;36.83
50592;BME280;36548;50.506;30.834;2023-04-25T04:38:34;99425.54;;;20.38;36.67
50592;BME280;36548;50.506;30.834;2023-04-25T04:39:50;99425.23;;;20.33;36.63
50592;BME280;36548;50.506;30.834;2023-04-25T04:41:49;99429.37;;;20.06;37.28
50592;BME280;36548;50.506;30.834;2023-04-25T04:43:06;99425.26;;;20.10;37.37
50592;BME280;36548;50.506;30.834;2023-04-25T04:44:36;99419.42;;;19.90;37.64
50592;BME280;36548;50.506;30.834;2023-04-25T04:45:53;99420.25;;;19.90;37.92
50592;BME280;36548;50.506;30.834;2023-04-25T04:47:15;99422.89;;;19.75;37.88
50592;BME280;36548;50.506;30.834;2023-04-25T04:48:32;99419.66;;;19.80;38.29
50592;BME280;36548;50.506;30.834;2023-04-25T04:49:56;99423.07;;;19.74;38.13
50592;BME280;36548;50.506;30.834;2023-04-25T04:51:13;99417.62;;;19.74;38.35
50592;BME280;36548;50.506;30.834;2023-04-25T04:52:30;99423.53;;;19.86;38.47
50592;BME280;36548;50.506;30.834;2023-04-25T04:53:47;99422.37;;;19.80;38.38
50592;BME280;36548;50.506;30.834;2023-04-25T04:55:04;99421.85;;;20.08;38.23
50592;BME280;36548;50.506;30.834;2023-04-25T04:57:08;99421.35;;;20.04;38.14
50592;BME280;36548;50.506;30.834;2023-04-25T04:58:23;99418.76;;;20.11;37.85
50592;BME280;36548;50.506;30.834;2023-04-25T04:59:42;99426.80;;;20.04;38.28
50592;BME280;36548;50.506;30.834;2023-04-25T05:00:58;99420.03;;;20.23;38.15
50592;BME280;36548;50.506;30.834;2023-04-25T05:02:13;99424.64;;;20.23;38.05
50592;BME280;36548;50.506;30.834;2023-04-25T05:03:28;99420.73;;;20.40;37.80
50592;BME280;36548;50.506;30.834;2023-04-25T05:05:32;99425.42;;;20.32;37.66
50592;BME280;36548;50.506;30.834;2023-04-25T05:06:47;99417.67;;;20.43;37.63
50592;BME280;36548;50.506;30.834;2023-04-25T05:07:57;99421.86;;;20.31;38.04
50592;BME280;36548;50.506;30.834;2023-04-25T05:09:14;99431.70;;;20.32;37.95
50592;BME280;36548;50.506;30.834;2023-04-25T05:10:30;99427.70;;;20.43;38.04
50592;BME280;36548;50.506;30.834;2023-04-25T05:12:14;99428.83;;;20.34;38.12
50592;BME280;36548;50.506;30.834;2023-04-25T05:13:29;99427.45;;;20.53;37.76
50592;BME280;36548;50.506;30.834;2023-04-25T05:15:33;99431.48;;;20.42;37.60
50592;BME280;36548;50.506;30.834;2023-04-25T05:17:05;99429.59;;;20.42;37.63
50592;BME280;36548;50.506;30.834;2023-04-25T05:18:22;99424.14;;;20.42;37.64
50592;BME280;36548;50.506;30.834;2023-04-25T05:20:17;99432.27;;;20.27;37.46
50592;BME280;36548;50.506;30.834;2023-04-25T05:21:34;99420.77;;;20.17;38.34
50592;BME280;36548;50.506;30.834;2023-04-25T05:22:56;99427.48;;;20.06;38.25
50592;BME280;36548;50.506;30.834;2023-04-25T05:24:11;99421.80;;;20.16;38.16
50592;BME280;36548;50.506;30.834;2023-04-25T05:26:15;99425.59;;;20.07;38.28
50592;BME280;36548;50.506;30.834;2023-04-25T05:27:30;99422.57;;;20.25;38.35
50592;BME280;36548;50.506;30.834;2023-04-25T05:28:42;99421.80;;;20.16;38.27
50592;BME280;36548;50.506;30.834;2023-04-25T05:29:57;99419.47;;;20.28;38.24
50592;BME280;36548;50.506;30.834;2023-04-25T05:31:13;99416.66;;;20.21;38.41
50592;BME280;36548;50.506;30.834;2023-04-25T05:32:30;99414.14;;;20.35;38.40
50592;BME280;36548;50.506;30.834;2023-04-25T05:33:41;99412.35;;;20.27;38.24
50592;BME280;36548;50.506;30.834;2023-04-25T05:34:57;99405.78;;;20.36;38.65
50592;BME280;36548;50.506;30.834;2023-04-25T05:36:09;99418.08;;;20.32;38.69
50592;BME280;36548;50.506;30.834;2023-04-25T05:37:24;99417.30;;;20.47;38.33
50592;BME280;36548;50.506;30.834;2023-04-25T05:38:38;99412.41;;;20.42;38.42
50592;BME280;36548;50.506;30.834;2023-04-25T05:39:53;99407.53;;;20.52;38.50
50592;BME280;36548;50.506;30.834;2023-04-25T05:41:13;99418.81;;;20.49;38.65
50592;BME280;36548;50.506;30.834;2023-04-25T05:42:28;99407.87;;;20.72;38.29
50592;BME280;36548;50.506;30.834;2023-04-25T05:43:39;99417.94;;;20.72;38.25
50592;BME280;36548;50.506;30.834;2023-04-25T05:44:55;99408.19;;;20.92;37.98
50592;BME280;36548;50.506;30.834;2023-04-25T05:46:28;99414.22;;;20.88;37.78
50592;BME280;36548;50.506;30.834;2023-04-25T05:47:47;99402.26;;;21.04;37.59
50592;BME280;36548;50.506;30.834;2023-04-25T05:48:58;99411.38;;;20.96;37.63
50592;BME280;36548;50.506;30.834;2023-04-25T05:50:14;99406.31;;;21.08;37.92
50592;BME280;36548;50.506;30.834;2023-04-25T05:51:35;99406.78;;;20.97;38.03
50592;BME280;36548;50.506;30.834;2023-04-25T05:52:50;99406.02;;;21.18;37.90
50592;BME280;36548;50.506;30.834;2023-04-25T05:54:07;99412.44;;;21.10;37.58
50592;BME280;36548;50.506;30.834;2023-04-25T05:55:22;99400.47;;;21.26;38.06
50592;BME280;36548;50.506;30.834;2023-04-25T05:56:32;99402.36;;;21.25;37.68
50592;BME280;36548;50.506;30.834;2023-04-25T05:57:48;99403.00;;;21.27;37.13
50592;BME280;36548;50.506;30.834;2023-04-25T05:59:00;99407.72;;;21.19;37.50
50592;BME280;36548;50.506;30.834;2023-04-25T06:00:15;99396.61;;;21.35;37.51
50592;BME280;36548;50.506;30.834;2023-04-25T06:01:25;99405.54;;;21.29;37.29
50592;BME280;36548;50.506;30.834;2023-04-25T06:02:41;99406.95;;;21.40;37.29
50592;BME280;36548;50.506;30.834;2023-04-25T06:03:53;99409.59;;;21.33;37.63
50592;BME280;36548;50.506;30.834;2023-04-25T06:05:28;99399.04;;;21.45;37.14
50592;BME280;36548;50.506;30.834;2023-04-25T06:06:37;99410.16;;;21.28;37.13
50592;BME280;36548;50.506;30.834;2023-04-25T06:07:52;99411.48;;;21.33;37.58
50592;BME280;36548;50.506;30.834;2023-04-25T06:09:02;99405.64;;;21.21;37.50
50592;BME280;36548;50.506;30.834;2023-04-25T06:10:18;99402.70;;;21.37;37.44
50592;BME280;36548;50.506;30.834;2023-04-25T06:11:28;99402.36;;;21.25;36.85
50592;BME280;36548;50.506;30.834;2023-04-25T06:12:46;99400.47;;;21.26;36.92
50592;BME280;36548;50.506;30.834;2023-04-25T06:13:56;99405.54;;;21.14;37.09
50592;BME280;36548;50.506;30.834;2023-04-25T06:15:11;99402.72;;;21.22;37.37
50592;BME280;36548;50.506;30.834;2023-04-25T06:16:23;99407.81;;;21.10;37.44
50592;BME280;36548;50.506;30.834;2023-04-25T06:17:40;99396.61;;;21.05;37.03
50592;BME280;36548;50.506;30.834;2023-04-25T06:18:49;99393.31;;;20.80;37.30
50592;BME280;36548;50.506;30.834;2023-04-25T06:20:05;99388.05;;;20.78;37.85
50592;BME280;36548;50.506;30.834;2023-04-25T06:21:14;99390.02;;;20.70;38.02
50592;BME280;36548;50.506;30.834;2023-04-25T06:22:29;99398.69;;;20.88;38.13
50592;BME280;36548;50.506;30.834;2023-04-25T06:23:39;99388.16;;;20.85;38.41
50592;BME280;36548;50.506;30.834;2023-04-25T06:24:55;99397.09;;;21.09;38.31
50592;BME280;36548;50.506;30.834;2023-04-25T06:26:06;99397.64;;;21.04;37.96
50592;BME280;36548;50.506;30.834;2023-04-25T06:27:21;99392.77;;;21.15;37.84
50592;BME280;36548;50.506;30.834;2023-04-25T06:28:30;99393.69;;;21.07;38.02
50592;BME280;36548;50.506;30.834;2023-04-25T06:29:45;99395.94;;;21.18;38.25